KHOU/HOU METAR and TAF weather

Enter ICAO airport designator
Station Type Date Time Source
KHOU METAR 2020/10/29 16:53 UTC NOAA

KHOU 291653Z 30014G21KT 10SM SCT038 15/04 A3008 RMK AO2 PK WND 32026/1602 SLP192 T01500044


Station Type Date Time Source
KHOU Decoded METAR 2020/10/29 16:53 UTC NOAA

HOUSTON HOBBY AIRPORT, TX, United States (KHOU) 29-38N 095-17W 36M
Oct 29, 2020 - 12:53 PM EDT / 2020.10.29 1653 UTC
Wind: from the WNW (300 degrees) at 16 MPH (14 KT) gusting to 24 MPH (21 KT):0
Visibility: 10 mile(s):0
Sky conditions: partly cloudy
Temperature: 59.0 F (15.0 C)
Dew Point: 39.9 F (4.4 C)
Relative Humidity: 49%
Pressure (altimeter): 30.08 in. Hg (1018 hPa)
ob: KHOU 291653Z 30014G21KT 10SM SCT038 15/04 A3008 RMK AO2 PK WND 32026/1602 SLP192 T01500044
cycle: 17

Station Type Date Time Source
KHOU TAF 2020/10/29 18:45 UTC NOAA

TAF KHOU 291743Z 2918/3018 32012G22KT P6SM SCT035
FM292100 33016G23KT P6SM FEW035
FM300100 34015KT P6SM SCT030
FM300500 36010KT P6SM SCT025
FM301200 04006KT P6SM FEW250

Example: see airport list